Terminal Aerodrome Forecast
Issued by NWS Boston, MA

Home | Current Version | Previous Version | Text Only | Print | Product List | Glossary On
Versions: 1 2 3 4 5 6 7 8 9 10 11 12 13 14 15 16 17 18 19 20 21 22 23 24 25 26 27 28 29 30 31 32 33 34 35 36 37 38 39 40 41 42 43 44 45 46
930
FTUS41 KBOX 101737
TAFORH
TAF
KORH 101737Z 1018/1118 23012KT P6SM VCSH OVC010
     FM102100 24012G21KT 3SM -RA BR OVC008
     FM110000 29010G21KT 6SM -RA BR OVC020
     FM110200 30009KT 6SM -SNRA BR OVC035
     FM110400 30008KT 2SM -SN OVC020
     FM111100 30005KT P6SM VCSH OVC035
     FM111600 28006KT P6SM BKN070=

USA.gov is the U.S. government's official web portal to all federal, state and local government web resources and services.